createdAt,value
2019-03-20T00:00:28.394Z,88.36
2019-03-20T00:01:28.390Z,88.17
2019-03-20T00:02:28.304Z,87.13
2019-03-20T00:03:28.267Z,86.38
2019-03-20T00:04:28.223Z,86.57
2019-03-20T00:05:28.147Z,86.66
2019-03-20T00:06:28.108Z,86.66
2019-03-20T00:07:28.195Z,87.98
2019-03-20T00:08:28.023Z,90.63
2019-03-20T00:09:28.017Z,91.67
2019-03-20T00:10:27.981Z,93.09
2019-03-20T00:11:27.935Z,91.29
2019-03-20T00:12:27.862Z,90.82
2019-03-20T00:13:27.853Z,92.14
2019-03-20T00:14:27.778Z,93.75
2019-03-20T00:15:27.760Z,93.94
2019-03-20T00:16:27.703Z,94.60
2019-03-20T00:17:27.663Z,95.12
2019-03-20T00:18:27.605Z,93.89
2019-03-20T00:19:27.554Z,93.04
2019-03-20T00:20:27.516Z,91.53
2019-03-20T00:21:27.492Z,90.06
2019-03-20T00:22:27.430Z,87.98
2019-03-20T00:23:27.401Z,88.27
2019-03-20T00:24:27.354Z,87.61
2019-03-20T00:25:27.283Z,88.55
2019-03-20T00:26:27.444Z,86.47
2019-03-20T00:27:27.219Z,84.01
2019-03-20T00:28:27.201Z,82.50
2019-03-20T00:29:27.146Z,82.41
2019-03-20T00:30:27.169Z,82.41
2019-03-20T00:31:27.026Z,82.98
2019-03-20T00:32:27.014Z,83.17
2019-03-20T00:33:26.969Z,83.83
2019-03-20T00:34:27.019Z,83.73
2019-03-20T00:35:26.841Z,84.49
2019-03-20T00:36:26.813Z,84.58
2019-03-20T00:37:26.790Z,84.58
2019-03-20T00:38:26.878Z,85.53
2019-03-20T00:39:26.695Z,85.81
2019-03-20T00:40:26.670Z,87.04
2019-03-20T00:41:26.615Z,86.29
2019-03-20T00:42:26.590Z,86.94
2019-03-20T00:43:26.511Z,86.66
2019-03-20T00:44:26.489Z,87.42
2019-03-20T00:45:26.430Z,86.38
2019-03-20T00:46:26.373Z,86.66
2019-03-20T00:47:26.358Z,85.72
2019-03-20T00:48:26.446Z,86.00
2019-03-20T00:49:26.260Z,86.57
2019-03-20T00:50:26.223Z,86.38
2019-03-20T00:51:26.168Z,87.23
2019-03-20T00:52:26.148Z,88.84
2019-03-20T00:53:26.080Z,89.40
2019-03-20T00:54:26.054Z,89.50
2019-03-20T00:55:26.005Z,89.12
2019-03-20T00:56:26.095Z,87.70
2019-03-20T00:57:25.909Z,87.13
2019-03-20T00:58:25.915Z,87.04
2019-03-20T00:59:25.882Z,87.04
2019-03-20T01:00:25.852Z,87.79
2019-03-20T01:01:25.741Z,89.97
2019-03-20T01:02:25.674Z,91.77
2019-03-20T01:03:25.654Z,91.48
2019-03-20T01:04:25.710Z,91.15
2019-03-20T01:05:25.579Z,89.69
2019-03-20T01:06:25.554Z,87.79
2019-03-20T01:07:25.488Z,89.31
2019-03-20T01:08:25.516Z,89.64
2019-03-20T01:09:25.401Z,90.11
2019-03-20T01:10:25.370Z,89.92
2019-03-20T01:11:25.312Z,89.92
2019-03-20T01:12:25.269Z,89.92
2019-03-20T01:13:25.215Z,89.26
2019-03-20T01:14:25.183Z,88.60
2019-03-20T01:15:25.122Z,86.43
2019-03-20T01:16:25.106Z,85.43
2019-03-20T01:17:25.043Z,84.30
2019-03-20T01:18:25.036Z,83.83
2019-03-20T01:19:24.952Z,83.83
2019-03-20T01:20:24.888Z,85.20
2019-03-20T01:21:24.845Z,86.80
2019-03-20T01:22:24.802Z,88.70
2019-03-20T01:23:24.872Z,88.89
2019-03-20T01:24:24.737Z,88.89
2019-03-20T01:25:24.692Z,90.59
2019-03-20T01:26:24.641Z,89.83
2019-03-20T01:27:24.619Z,89.45
2019-03-20T01:28:24.582Z,91.15
2019-03-20T01:29:24.523Z,90.02
2019-03-20T01:30:24.470Z,89.36
2019-03-20T01:31:24.417Z,87.94
2019-03-20T01:32:24.357Z,86.43
2019-03-20T01:33:24.339Z,85.77
2019-03-20T01:34:24.272Z,86.05
2019-03-20T01:35:24.354Z,85.01
2019-03-20T01:36:24.223Z,84.73
2019-03-20T01:37:24.165Z,84.64
2019-03-20T01:38:24.101Z,84.45
2019-03-20T01:39:24.047Z,84.35
2019-03-20T01:40:24.020Z,85.11
2019-03-20T01:41:24.012Z,85.49
2019-03-20T01:42:23.929Z,86.05
2019-03-20T01:43:23.914Z,87.18
2019-03-20T01:44:23.838Z,86.99
2019-03-20T01:45:23.797Z,87.18
2019-03-20T01:46:23.753Z,87.94
2019-03-20T01:47:23.709Z,88.13
2019-03-20T01:48:23.662Z,89.26
2019-03-20T01:49:23.650Z,90.40
2019-03-20T01:50:23.573Z,90.77
2019-03-20T01:51:23.590Z,91.15
2019-03-20T01:52:23.484Z,91.34
2019-03-20T01:53:23.457Z,91.25
2019-03-20T01:54:23.418Z,91.06
2019-03-20T01:55:23.386Z,91.15
2019-03-20T01:56:23.312Z,90.21
2019-03-20T01:57:23.281Z,90.11
2019-03-20T01:58:23.222Z,89.45
2019-03-20T01:59:23.189Z,87.66
2019-03-20T02:00:23.219Z,86.62
2019-03-20T02:01:23.131Z,86.80
2019-03-20T02:02:23.070Z,85.49
2019-03-20T02:03:23.022Z,86.52
2019-03-20T02:04:22.960Z,86.99
2019-03-20T02:05:23.072Z,87.56
2019-03-20T02:06:22.878Z,87.75
2019-03-20T02:07:22.830Z,88.32
2019-03-20T02:08:22.814Z,87.75
2019-03-20T02:09:22.751Z,87.47
2019-03-20T02:10:22.742Z,87.56
2019-03-20T02:11:22.684Z,87.09
2019-03-20T02:12:22.619Z,87.18
2019-03-20T02:13:22.577Z,87.28
2019-03-20T02:14:22.521Z,86.80
2019-03-20T02:15:22.475Z,86.80
2019-03-20T02:16:22.464Z,86.99
2019-03-20T02:17:22.397Z,86.33
2019-03-20T02:18:22.362Z,86.24
2019-03-20T02:19:22.332Z,87.18
2019-03-20T02:20:22.252Z,87.18
2019-03-20T02:21:22.213Z,87.37
2019-03-20T02:22:22.169Z,87.18
2019-03-20T02:23:22.127Z,87.66
2019-03-20T02:24:22.081Z,87.94
2019-03-20T02:25:22.058Z,88.79
2019-03-20T02:26:21.981Z,88.70
2019-03-20T02:27:21.957Z,88.89
2019-03-20T02:28:21.896Z,87.94
2019-03-20T02:29:21.895Z,87.28
2019-03-20T02:30:21.820Z,88.70
2019-03-20T02:31:21.791Z,91.34
2019-03-20T02:32:21.720Z,91.34
2019-03-20T02:33:21.734Z,90.21
2019-03-20T02:34:21.641Z,89.07
2019-03-20T02:35:21.590Z,89.45
2019-03-20T02:36:21.579Z,89.17
2019-03-20T02:37:21.488Z,89.22
2019-03-20T02:38:21.452Z,90.21
2019-03-20T02:39:21.416Z,90.64
2019-03-20T02:40:21.370Z,90.64
2019-03-20T02:41:21.336Z,90.92
2019-03-20T02:42:21.372Z,90.07
2019-03-20T02:43:21.378Z,88.75
2019-03-20T02:44:21.178Z,89.78
2019-03-20T02:45:21.145Z,89.22
2019-03-20T02:46:21.101Z,87.62
2019-03-20T02:47:21.077Z,86.76
2019-03-20T02:48:21.004Z,86.24
2019-03-20T02:49:20.996Z,86.43
2019-03-20T02:50:20.920Z,87.09
2019-03-20T02:51:20.896Z,87.75
2019-03-20T02:52:20.854Z,87.75
2019-03-20T02:53:20.785Z,87.56
2019-03-20T02:54:20.751Z,87.28
2019-03-20T02:55:20.720Z,87.47
2019-03-20T02:56:20.655Z,87.75
2019-03-20T02:57:20.620Z,87.56
2019-03-20T02:58:20.571Z,87.66
2019-03-20T02:59:20.582Z,88.23
2019-03-20T03:00:20.481Z,88.70
2019-03-20T03:01:20.446Z,89.97
2019-03-20T03:02:20.387Z,90.21
2019-03-20T03:03:20.328Z,91.15
2019-03-20T03:04:20.331Z,90.82
2019-03-20T03:05:20.255Z,90.64
2019-03-20T03:06:20.279Z,90.64
2019-03-20T03:07:20.162Z,90.73
2019-03-20T03:08:20.111Z,90.54
2019-03-20T03:09:20.095Z,89.59
2019-03-20T03:10:20.025Z,88.09
2019-03-20T03:11:19.986Z,87.43
2019-03-20T03:12:19.946Z,86.90
2019-03-20T03:13:19.966Z,86.29
2019-03-20T03:14:19.869Z,86.24
2019-03-20T03:15:19.811Z,85.86
2019-03-20T03:16:19.796Z,86.19
2019-03-20T03:17:19.767Z,86.90
2019-03-20T03:18:19.682Z,87.09
2019-03-20T03:19:19.634Z,88.28
2019-03-20T03:20:19.582Z,88.75
2019-03-20T03:21:19.556Z,88.84
2019-03-20T03:22:19.476Z,87.90
2019-03-20T03:23:19.477Z,87.71
2019-03-20T03:24:19.405Z,87.71
2019-03-20T03:25:19.375Z,88.09
2019-03-20T03:26:19.397Z,88.65
2019-03-20T03:27:19.287Z,88.65
2019-03-20T03:28:19.230Z,88.46
2019-03-20T03:29:19.201Z,88.56
2019-03-20T03:30:19.248Z,88.93
2019-03-20T03:31:19.125Z,88.75
2019-03-20T03:32:19.094Z,88.18
2019-03-20T03:33:19.015Z,87.90
2019-03-20T03:34:18.998Z,86.95
2019-03-20T03:35:20.008Z,86.95
2019-03-20T03:36:21.516Z,87.24
2019-03-20T03:37:18.827Z,87.43
2019-03-20T03:38:18.762Z,87.90
2019-03-20T03:39:18.731Z,88.56
2019-03-20T03:40:18.692Z,89.40
2019-03-20T03:41:18.636Z,89.97
2019-03-20T03:42:18.598Z,88.84
2019-03-20T03:43:18.584Z,89.40
2019-03-20T03:44:18.510Z,91.11
2019-03-20T03:45:18.469Z,91.96
2019-03-20T03:46:18.417Z,91.30
2019-03-20T03:47:18.464Z,90.64
2019-03-20T03:48:18.326Z,90.92
2019-03-20T03:49:18.334Z,89.97
2019-03-20T03:50:18.237Z,87.99
2019-03-20T03:51:18.188Z,87.80
2019-03-20T03:52:18.140Z,87.52
2019-03-20T03:53:18.093Z,87.90
2019-03-20T03:54:18.072Z,88.28
2019-03-20T03:55:18.032Z,87.99
2019-03-20T03:56:17.969Z,87.99
2019-03-20T03:57:17.915Z,88.28
2019-03-20T03:58:17.954Z,88.93
2019-03-20T03:59:17.963Z,89.12
2019-03-20T04:00:17.782Z,89.31
2019-03-20T04:01:17.740Z,89.40
2019-03-20T04:02:17.738Z,88.56
2019-03-20T04:03:17.671Z,88.28
2019-03-20T04:04:17.615Z,88.18
2019-03-20T04:05:17.602Z,87.52
2019-03-20T04:06:17.531Z,87.43
2019-03-20T04:07:17.472Z,87.05
2019-03-20T04:08:17.460Z,87.62
2019-03-20T04:09:17.449Z,87.24
2019-03-20T04:10:17.369Z,89.12
2019-03-20T04:11:17.310Z,90.45
2019-03-20T04:12:17.266Z,91.01
2019-03-20T04:13:17.237Z,92.99
2019-03-20T04:14:17.158Z,95.26
2019-03-20T04:15:17.143Z,98.00
2019-03-20T04:16:17.056Z,97.05
2019-03-20T04:17:17.062Z,94.13
2019-03-20T04:18:16.980Z,91.77
2019-03-20T04:19:16.934Z,89.78
2019-03-20T04:20:16.946Z,88.56
2019-03-20T04:21:16.853Z,88.28
2019-03-20T04:22:16.807Z,88.09
2019-03-20T04:23:16.892Z,88.09
2019-03-20T04:24:16.727Z,88.37
2019-03-20T04:25:16.656Z,88.28
2019-03-20T04:26:16.630Z,88.18
2019-03-20T04:27:16.628Z,87.71
2019-03-20T04:28:16.551Z,88.75
2019-03-20T04:29:16.529Z,89.12
2019-03-20T04:30:16.431Z,89.03
2019-03-20T04:31:16.399Z,88.84
2019-03-20T04:32:16.334Z,89.22
2019-03-20T04:33:16.354Z,89.40
2019-03-20T04:34:16.285Z,89.97
2019-03-20T04:35:16.222Z,90.54
2019-03-20T04:36:16.205Z,91.30
2019-03-20T04:37:16.135Z,91.11
2019-03-20T04:38:16.067Z,91.30
2019-03-20T04:39:16.041Z,90.45
2019-03-20T04:40:15.997Z,90.54
2019-03-20T04:41:15.936Z,91.11
2019-03-20T04:42:15.893Z,90.54
2019-03-20T04:43:15.852Z,90.45
2019-03-20T04:44:15.815Z,89.40
2019-03-20T04:45:15.765Z,89.31
2019-03-20T04:46:15.733Z,89.88
2019-03-20T04:47:15.671Z,89.31
2019-03-20T04:48:15.625Z,89.40
2019-03-20T04:49:15.618Z,89.22
2019-03-20T04:50:15.534Z,89.12
2019-03-20T04:51:15.503Z,88.84
2019-03-20T04:52:15.472Z,88.65
2019-03-20T04:53:15.394Z,89.12
2019-03-20T04:54:15.854Z,89.03
2019-03-20T04:55:15.316Z,88.65
2019-03-20T04:56:15.274Z,88.09
2019-03-20T04:57:15.224Z,88.84
2019-03-20T04:58:15.163Z,88.09
2019-03-20T04:59:15.162Z,88.37
2019-03-20T05:00:15.076Z,88.75
2019-03-20T05:01:15.069Z,92.14
2019-03-20T05:02:15.018Z,93.09
2019-03-20T05:03:14.944Z,94.70
2019-03-20T05:04:14.895Z,94.89
2019-03-20T05:05:14.850Z,94.79
2019-03-20T05:06:14.798Z,93.37
2019-03-20T05:07:14.783Z,90.92
2019-03-20T05:08:14.741Z,90.16
2019-03-20T05:09:14.671Z,88.65
2019-03-20T05:10:14.636Z,88.75
2019-03-20T05:11:14.576Z,88.65
2019-03-20T05:12:14.579Z,88.56
2019-03-20T05:13:14.481Z,89.22
2019-03-20T05:14:14.469Z,90.07
2019-03-20T05:15:14.397Z,90.07
2019-03-20T05:16:14.382Z,92.24
2019-03-20T05:17:14.307Z,91.01
2019-03-20T05:18:14.269Z,91.67
2019-03-20T05:19:14.212Z,91.58
2019-03-20T05:20:14.202Z,91.30
2019-03-20T05:21:14.172Z,90.16
2019-03-20T05:22:14.116Z,90.16
2019-03-20T05:23:14.096Z,89.78
2019-03-20T05:24:14.009Z,89.78
2019-03-20T05:25:13.961Z,90.73
2019-03-20T05:26:13.900Z,91.77
2019-03-20T05:27:13.864Z,92.99
2019-03-20T05:28:13.827Z,94.22
2019-03-20T05:29:13.810Z,94.03
2019-03-20T05:30:13.736Z,94.60
2019-03-20T05:31:13.888Z,93.09
2019-03-20T05:32:13.853Z,92.61
2019-03-20T05:33:13.712Z,91.86
2019-03-20T05:34:13.578Z,91.30
2019-03-20T05:35:13.496Z,91.58
2019-03-20T05:36:13.567Z,91.49
2019-03-20T05:37:13.431Z,91.11
2019-03-20T05:38:13.384Z,90.64
2019-03-20T05:39:15.713Z,91.01
2019-03-20T05:40:13.291Z,91.20
2019-03-20T05:41:13.244Z,90.92
2019-03-20T05:42:13.187Z,91.77
2019-03-20T05:43:13.145Z,95.17
2019-03-20T05:44:13.106Z,95.54
2019-03-20T05:45:13.070Z,93.94
2019-03-20T05:46:13.023Z,91.11
2019-03-20T05:47:12.974Z,91.11
2019-03-20T05:48:12.915Z,91.49
2019-03-20T05:49:12.922Z,92.61
2019-03-20T05:50:12.851Z,92.33
2019-03-20T05:51:12.764Z,91.86
2019-03-20T05:52:12.762Z,92.24
2019-03-20T05:53:12.710Z,93.09
2019-03-20T05:54:12.767Z,93.66
2019-03-20T05:55:12.609Z,93.09
2019-03-20T05:56:12.563Z,93.09
2019-03-20T05:57:12.790Z,92.71
2019-03-20T05:58:12.474Z,92.24
2019-03-20T05:59:12.428Z,92.80
2019-03-20T06:00:12.415Z,92.99
2019-03-20T06:01:12.403Z,92.61
2019-03-20T06:02:12.310Z,92.99
2019-03-20T06:03:12.235Z,93.75
2019-03-20T06:04:12.186Z,94.89
2019-03-20T06:05:12.170Z,95.64
2019-03-20T06:06:12.117Z,98.10
2019-03-20T06:07:21.119Z,97.58
2019-03-20T06:08:12.005Z,97.48
2019-03-20T06:09:11.973Z,96.91
2019-03-20T06:10:11.964Z,96.54
2019-03-20T06:11:11.867Z,96.91
2019-03-20T06:12:11.825Z,95.12
2019-03-20T06:13:11.814Z,95.03
2019-03-20T06:14:11.765Z,95.50
2019-03-20T06:15:11.738Z,95.68
2019-03-20T06:16:11.662Z,96.25
2019-03-20T06:17:11.601Z,96.16
2019-03-20T06:18:11.585Z,97.01
2019-03-20T06:19:11.521Z,96.73
2019-03-20T06:20:11.493Z,96.44
2019-03-20T06:21:11.564Z,98.33
2019-03-20T06:22:11.390Z,98.80
2019-03-20T06:23:11.374Z,99.99
2019-03-20T06:24:11.323Z,99.99
2019-03-20T06:25:11.274Z,99.99
2019-03-20T06:26:11.201Z,99.99
2019-03-20T06:27:11.190Z,99.99
2019-03-20T06:28:11.135Z,99.99
2019-03-20T06:29:11.080Z,99.99
2019-03-20T06:30:11.030Z,99.99
2019-03-20T06:31:11.866Z,99.99
2019-03-20T06:32:10.970Z,99.99
2019-03-20T06:33:10.895Z,99.99
2019-03-20T06:34:10.857Z,99.99
2019-03-20T06:35:10.855Z,99.99
2019-03-20T06:36:10.785Z,99.99
2019-03-20T06:37:10.728Z,99.99
2019-03-20T06:38:10.714Z,99.99
2019-03-20T06:39:10.721Z,99.99
2019-03-20T06:40:10.627Z,99.99
2019-03-20T06:41:10.579Z,99.99
2019-03-20T06:42:10.532Z,99.99
2019-03-20T06:43:10.520Z,99.99
2019-03-20T06:44:10.433Z,99.99
2019-03-20T06:45:10.424Z,99.99
2019-03-20T06:46:10.359Z,99.99
2019-03-20T06:47:10.321Z,99.99
2019-03-20T06:48:10.283Z,99.99
2019-03-20T06:49:10.270Z,99.99
2019-03-20T06:50:10.191Z,99.99
2019-03-20T06:51:10.161Z,99.99
2019-03-20T06:52:10.119Z,99.99
2019-03-20T06:53:10.081Z,99.99
2019-03-20T06:54:10.052Z,99.99
2019-03-20T06:55:10.033Z,99.99
2019-03-20T06:56:09.991Z,99.99
2019-03-20T06:57:09.903Z,99.99
2019-03-20T06:58:09.894Z,99.99
2019-03-20T06:59:09.823Z,99.99
2019-03-20T07:00:09.826Z,99.99
2019-03-20T07:01:09.756Z,99.99
2019-03-20T07:02:09.738Z,99.99
2019-03-20T07:03:09.695Z,99.99
2019-03-20T07:04:09.644Z,99.99
2019-03-20T07:05:09.652Z,99.99
2019-03-20T07:06:09.589Z,99.99
2019-03-20T07:07:09.531Z,99.99
2019-03-20T07:08:09.531Z,99.99
2019-03-20T07:09:09.489Z,99.99
2019-03-20T07:10:09.475Z,99.99
2019-03-20T07:11:09.404Z,98.08
2019-03-20T07:12:09.387Z,89.47
2019-03-20T07:13:09.337Z,90.46
2019-03-20T07:14:11.031Z,92.55
2019-03-20T07:15:09.307Z,91.55
2019-03-20T07:16:09.225Z,90.84
2019-03-20T07:17:09.225Z,86.83
2019-03-20T07:18:09.196Z,82.30
2019-03-20T07:19:09.156Z,82.40
2019-03-20T07:20:09.118Z,81.06
2019-03-20T07:21:09.058Z,78.86
2019-03-20T07:22:09.072Z,77.47
2019-03-20T07:23:09.426Z,76.81
2019-03-20T07:24:09.030Z,73.88
2019-03-20T07:25:09.011Z,73.79
2019-03-20T07:26:09.593Z,75.32
2019-03-20T07:27:08.913Z,73.12
2019-03-20T07:28:08.892Z,73.69
2019-03-20T07:29:08.849Z,74.65
2019-03-20T07:30:08.809Z,75.83
2019-03-20T07:31:15.087Z,72.11
2019-03-20T07:32:08.811Z,70.92
2019-03-20T07:33:08.796Z,70.73
2019-03-20T07:34:08.705Z,72.45
2019-03-20T07:35:08.694Z,71.88
2019-03-20T07:36:08.652Z,71.53
2019-03-20T07:37:08.637Z,70.87
2019-03-20T07:38:08.612Z,71.98
2019-03-20T07:39:08.583Z,71.21
2019-03-20T07:40:08.536Z,70.20
2019-03-20T07:41:08.499Z,69.15
2019-03-20T07:42:08.480Z,68.19
2019-03-20T07:43:09.388Z,69.27
2019-03-20T07:44:08.430Z,71.96
2019-03-20T07:45:08.417Z,75.87
2019-03-20T07:46:08.386Z,75.62
2019-03-20T07:47:08.363Z,75.34
2019-03-20T07:48:08.322Z,74.46
2019-03-20T07:49:08.331Z,73.41
2019-03-20T07:50:08.296Z,73.54
2019-03-20T07:51:08.266Z,72.68
2019-03-20T07:52:08.289Z,71.19
2019-03-20T07:53:08.225Z,71.70
2019-03-20T07:54:08.177Z,71.32
2019-03-20T07:55:08.165Z,70.75
2019-03-20T07:56:08.157Z,69.79
2019-03-20T07:57:08.104Z,69.37
2019-03-20T07:58:08.084Z,68.80
2019-03-20T07:59:08.058Z,68.70
2019-03-20T08:00:08.041Z,70.20
2019-03-20T08:01:07.997Z,70.96
2019-03-20T08:02:07.996Z,70.61
2019-03-20T08:03:07.949Z,74.71
2019-03-20T08:04:07.909Z,74.57
2019-03-20T08:05:07.914Z,74.01
2019-03-20T08:06:07.894Z,72.23
2019-03-20T08:07:07.894Z,72.32
2019-03-20T08:08:08.065Z,73.79
2019-03-20T08:09:07.800Z,71.92
2019-03-20T08:10:07.795Z,70.58
2019-03-20T08:11:07.770Z,69.66
2019-03-20T08:12:07.745Z,68.93
2019-03-20T08:13:07.699Z,68.04
2019-03-20T08:14:07.673Z,67.55
2019-03-20T08:15:07.682Z,66.22
2019-03-20T08:16:07.612Z,65.26
2019-03-20T08:17:07.609Z,65.68
2019-03-20T08:18:07.577Z,67.97
2019-03-20T08:19:07.582Z,69.35
2019-03-20T08:20:07.564Z,67.63
2019-03-20T08:21:07.553Z,65.61
2019-03-20T08:22:07.558Z,65.33
2019-03-20T08:23:07.451Z,65.97
2019-03-20T08:24:07.424Z,65.97
2019-03-20T08:25:07.438Z,63.86
2019-03-20T08:26:07.412Z,64.59
2019-03-20T08:27:07.363Z,64.09
2019-03-20T08:28:07.327Z,64.15
2019-03-20T08:29:07.287Z,64.88
2019-03-20T08:30:07.274Z,67.42
2019-03-20T08:31:07.262Z,72.19
2019-03-20T08:32:07.208Z,73.43
2019-03-20T08:33:07.197Z,73.56
2019-03-20T08:34:07.166Z,74.61
2019-03-20T08:35:07.150Z,71.78
2019-03-20T08:36:07.129Z,68.70
2019-03-20T08:37:07.093Z,61.82
2019-03-20T08:38:17.382Z,59.44
2019-03-20T08:39:07.057Z,60.77
2019-03-20T08:40:07.010Z,62.37
2019-03-20T08:41:07.020Z,61.76
2019-03-20T08:42:06.976Z,62.71
2019-03-20T08:43:06.967Z,61.00
2019-03-20T08:44:07.001Z,60.52
2019-03-20T08:45:06.902Z,58.99
2019-03-20T08:46:06.869Z,59.22
2019-03-20T08:47:06.837Z,57.68
2019-03-20T08:48:06.853Z,58.36
2019-03-20T08:49:06.789Z,61.03
2019-03-20T08:50:06.826Z,61.72
2019-03-20T08:51:06.750Z,58.95
2019-03-20T08:52:06.805Z,58.12
2019-03-20T08:53:06.709Z,56.28
2019-03-20T08:54:06.689Z,56.06
2019-03-20T08:55:06.635Z,58.10
2019-03-20T08:56:06.604Z,56.21
2019-03-20T08:57:06.615Z,55.10
2019-03-20T08:58:06.564Z,56.46
2019-03-20T08:59:06.575Z,55.44
2019-03-20T09:00:06.556Z,54.83
2019-03-20T09:01:06.526Z,53.47
2019-03-20T09:02:06.468Z,54.71
2019-03-20T09:03:06.461Z,55.53
2019-03-20T09:04:06.424Z,53.74
2019-03-20T09:05:06.393Z,53.26
2019-03-20T09:06:06.393Z,51.06
2019-03-20T09:07:06.355Z,49.24
2019-03-20T09:08:06.366Z,49.40
2019-03-20T09:09:06.323Z,50.48
2019-03-20T09:10:06.274Z,51.30
2019-03-20T09:11:06.257Z,49.79
2019-03-20T09:12:06.250Z,49.21
2019-03-20T09:13:06.209Z,48.30
2019-03-20T09:14:06.224Z,49.26
2019-03-20T09:15:06.167Z,51.72
2019-03-20T09:16:06.168Z,53.18
2019-03-20T09:17:06.141Z,52.83
2019-03-20T09:18:06.098Z,52.83
2019-03-20T09:19:06.107Z,52.80
2019-03-20T09:20:06.067Z,53.63
2019-03-20T09:21:06.067Z,54.70
2019-03-20T09:22:06.040Z,55.53
2019-03-20T09:23:06.021Z,56.80
2019-03-20T09:24:06.030Z,56.32
2019-03-20T09:25:05.984Z,56.47
2019-03-20T09:26:05.969Z,55.26
2019-03-20T09:27:05.907Z,55.10
2019-03-20T09:28:05.958Z,56.27
2019-03-20T09:29:05.968Z,54.26
2019-03-20T09:30:05.851Z,51.70
2019-03-20T09:31:05.821Z,50.87
2019-03-20T09:32:05.844Z,50.58
2019-03-20T09:33:05.770Z,49.33
2019-03-20T09:34:05.822Z,48.88
2019-03-20T09:35:06.987Z,48.80
2019-03-20T09:36:05.747Z,50.79
2019-03-20T09:37:05.720Z,52.13
2019-03-20T09:38:05.659Z,51.72
2019-03-20T09:39:05.694Z,52.05
2019-03-20T09:40:05.627Z,53.39
2019-03-20T09:41:05.618Z,53.32
2019-03-20T09:42:06.445Z,52.96
2019-03-20T09:43:05.570Z,52.80
2019-03-20T09:44:05.554Z,51.68
2019-03-20T09:45:05.524Z,50.89
2019-03-20T09:46:05.518Z,51.39
2019-03-20T09:47:05.464Z,53.04
2019-03-20T09:48:05.443Z,54.15
2019-03-20T09:49:05.445Z,50.34
2019-03-20T09:50:05.403Z,47.82
2019-03-20T09:51:05.395Z,45.90
2019-03-20T09:52:05.366Z,47.03
2019-03-20T09:53:05.377Z,46.70
2019-03-20T09:54:05.364Z,47.56
2019-03-20T09:55:05.305Z,48.80
2019-03-20T09:56:05.300Z,49.84
2019-03-20T09:57:05.250Z,50.36
2019-03-20T09:58:11.446Z,48.47
2019-03-20T09:59:05.338Z,46.12
2019-03-20T10:00:05.253Z,47.01
2019-03-20T10:01:05.221Z,47.01
2019-03-20T10:02:05.148Z,46.05
2019-03-20T10:03:05.219Z,46.08
2019-03-20T10:04:05.118Z,45.69
2019-03-20T10:05:05.110Z,46.46
2019-03-20T10:06:05.087Z,46.22
2019-03-20T10:07:05.080Z,47.94
2019-03-20T10:08:05.023Z,47.99
2019-03-20T10:09:04.997Z,46.62
2019-03-20T10:10:05.005Z,47.47
2019-03-20T10:11:05.043Z,48.49
2019-03-20T10:12:04.958Z,49.26
2019-03-20T10:13:04.929Z,49.64
2019-03-20T10:14:04.890Z,50.34
2019-03-20T10:15:04.857Z,50.31
2019-03-20T10:16:04.846Z,50.12
2019-03-20T10:17:04.806Z,51.10
2019-03-20T10:18:04.848Z,51.44
2019-03-20T10:19:04.747Z,49.81
2019-03-20T10:20:04.743Z,47.71
2019-03-20T10:21:04.740Z,48.30
2019-03-20T10:22:04.796Z,48.88
2019-03-20T10:23:04.701Z,48.71
2019-03-20T10:24:04.671Z,47.56
2019-03-20T10:25:04.679Z,46.81
2019-03-20T10:26:04.625Z,45.14
2019-03-20T10:27:04.625Z,44.09
2019-03-20T10:28:04.622Z,44.76
2019-03-20T10:29:04.524Z,45.98
2019-03-20T10:30:04.514Z,45.50
2019-03-20T10:31:04.502Z,45.09
2019-03-20T10:32:04.570Z,44.71
2019-03-20T10:33:04.444Z,45.48
2019-03-20T10:34:04.416Z,45.26
2019-03-20T10:35:04.457Z,45.00
2019-03-20T10:36:04.514Z,45.36
2019-03-20T10:37:04.377Z,46.12
2019-03-20T10:38:04.343Z,46.31
2019-03-20T10:39:06.822Z,45.81
2019-03-20T10:40:04.293Z,46.77
2019-03-20T10:41:04.276Z,46.70
2019-03-20T10:42:04.308Z,45.94
2019-03-20T10:43:04.250Z,45.36
2019-03-20T10:44:04.228Z,44.62
2019-03-20T10:45:04.175Z,44.26
2019-03-20T10:46:04.177Z,42.65
2019-03-20T10:47:04.151Z,42.50
2019-03-20T10:48:04.200Z,41.80
2019-03-20T10:49:04.130Z,41.78
2019-03-20T10:50:04.058Z,44.35
2019-03-20T10:51:04.054Z,43.80
2019-03-20T10:52:04.053Z,42.55
2019-03-20T10:53:04.005Z,42.72
2019-03-20T10:54:03.969Z,41.94
2019-03-20T10:55:03.943Z,42.22
2019-03-20T10:56:03.916Z,42.68
2019-03-20T10:57:03.893Z,42.87
2019-03-20T10:58:03.905Z,43.30
2019-03-20T10:59:03.864Z,42.20
2019-03-20T11:00:03.849Z,42.85
2019-03-20T11:01:03.807Z,42.64
2019-03-20T11:02:03.771Z,44.34
2019-03-20T11:03:03.819Z,44.79
2019-03-20T11:04:03.798Z,44.70
2019-03-20T11:05:03.707Z,45.41
2019-03-20T11:06:03.740Z,44.86
2019-03-20T11:07:03.695Z,44.02
2019-03-20T11:08:03.647Z,45.12
2019-03-20T11:09:03.625Z,44.30
2019-03-20T11:10:03.748Z,41.83
2019-03-20T11:11:03.613Z,38.45
2019-03-20T11:12:03.553Z,37.68
2019-03-20T11:13:03.569Z,37.87
2019-03-20T11:14:03.494Z,38.45
2019-03-20T11:15:03.503Z,38.54
2019-03-20T11:16:03.467Z,38.26
2019-03-20T11:17:03.456Z,38.35
2019-03-20T11:18:03.526Z,39.89
2019-03-20T11:19:03.373Z,40.92
2019-03-20T11:20:03.416Z,41.34
2019-03-20T11:21:03.352Z,41.27
2019-03-20T11:22:03.333Z,41.36
2019-03-20T11:23:03.296Z,42.63
2019-03-20T11:24:03.266Z,42.22
2019-03-20T11:25:03.417Z,42.70
2019-03-20T11:26:03.210Z,42.60
2019-03-20T11:27:03.222Z,40.90
2019-03-20T11:28:03.177Z,40.36
2019-03-20T11:29:03.152Z,41.03
2019-03-20T11:30:03.122Z,41.41
2019-03-20T11:31:03.128Z,39.06
2019-03-20T11:32:03.093Z,38.51
2019-03-20T11:33:03.057Z,37.85
2019-03-20T11:34:03.031Z,36.32
2019-03-20T11:35:03.023Z,36.19
2019-03-20T11:36:02.996Z,36.84
2019-03-20T11:37:03.033Z,39.08
2019-03-20T11:38:02.962Z,38.59
2019-03-20T11:39:02.917Z,38.20
2019-03-20T11:40:02.899Z,37.92
2019-03-20T11:41:02.920Z,41.32
2019-03-20T11:42:02.938Z,43.44
2019-03-20T11:43:02.842Z,42.90
2019-03-20T11:44:02.811Z,42.72
2019-03-20T11:45:02.786Z,41.19
2019-03-20T11:46:02.782Z,41.77
2019-03-20T11:47:02.771Z,41.50
2019-03-20T11:48:02.730Z,40.90
2019-03-20T11:49:02.821Z,41.07
2019-03-20T11:50:02.693Z,40.14
2019-03-20T11:51:02.674Z,41.11
2019-03-20T11:52:02.603Z,39.68
2019-03-20T11:53:02.624Z,39.18
2019-03-20T11:54:02.573Z,40.12
2019-03-20T11:55:02.689Z,41.72
2019-03-20T11:56:02.641Z,42.58
2019-03-20T11:57:02.560Z,42.97
2019-03-20T11:58:02.505Z,42.49
2019-03-20T11:59:02.539Z,42.68
2019-03-20T12:00:02.517Z,42.56
2019-03-20T12:01:02.520Z,42.49
2019-03-20T12:02:02.423Z,42.58
2019-03-20T12:03:02.373Z,41.65
2019-03-20T12:04:02.391Z,40.09
2019-03-20T12:05:02.318Z,40.55
2019-03-20T12:06:02.269Z,40.08
2019-03-20T12:07:02.546Z,42.66
2019-03-20T12:08:02.302Z,44.12
2019-03-20T12:09:02.259Z,42.47
2019-03-20T12:10:02.204Z,41.72
2019-03-20T12:11:02.154Z,42.68
2019-03-20T12:12:02.125Z,42.60
2019-03-20T12:13:02.132Z,42.51
2019-03-20T12:14:02.083Z,42.60
2019-03-20T12:15:02.055Z,41.55
2019-03-20T12:16:02.031Z,40.86
2019-03-20T12:17:02.012Z,40.75
2019-03-20T12:18:02.038Z,41.70
2019-03-20T12:19:01.956Z,44.50
2019-03-20T12:20:01.931Z,44.43
2019-03-20T12:21:01.925Z,43.68
2019-03-20T12:22:01.942Z,42.72
2019-03-20T12:23:01.882Z,42.60
2019-03-20T12:24:01.827Z,41.84
2019-03-20T12:25:01.897Z,42.90
2019-03-20T12:26:01.825Z,41.53
2019-03-20T12:27:01.818Z,40.17
2019-03-20T12:28:01.758Z,40.08
2019-03-20T12:29:01.712Z,40.26
2019-03-20T12:30:01.783Z,40.36
2019-03-20T12:31:01.722Z,40.36
2019-03-20T12:32:01.649Z,39.12
2019-03-20T12:33:01.610Z,38.81
2019-03-20T12:34:02.339Z,40.25
2019-03-20T12:35:01.566Z,41.01
2019-03-20T12:36:01.541Z,41.18
2019-03-20T12:37:01.560Z,41.28
2019-03-20T12:38:13.324Z,41.68
2019-03-20T12:39:01.480Z,42.35
2019-03-20T12:40:02.025Z,43.71
2019-03-20T12:41:01.413Z,43.73
2019-03-20T12:42:02.030Z,40.86
2019-03-20T12:43:01.451Z,39.16
2019-03-20T12:44:01.346Z,38.49
2019-03-20T12:45:01.380Z,38.76
2019-03-20T12:46:01.543Z,39.33
2019-03-20T12:47:01.266Z,38.85
2019-03-20T12:48:01.389Z,40.00
2019-03-20T12:49:02.024Z,39.23
2019-03-20T12:50:01.280Z,39.14
2019-03-20T12:51:01.176Z,38.66
2019-03-20T12:52:01.325Z,40.21